Annapolis, Maryland
Current Conditions -  °F | °C
As of 4:54 AM on Monday 26 Jan 2015 (Local Time) from KNAK Reporting Station
Light Rain Light Rain  
Wind Chill: 31°   Ceiling: 4100
Heat Index: 38°   Visibility: 8mi
Dew Point: 32°   Wind: 10mph
Humidity: 79%   Direction: 60°ENE
Pressure: 29.83"   Gusts: NA
Location:  38.98°N, 76.49°W
Report Text: KNAK 260954Z AUTO 06009KT 8SM -RA OVC041 03/00 A2983 RMK AO2 SLP102 P0001 T00330000
Loading
Personal Weather Stations






























Interactive Weather Map New forecast layout! Learn more

10-Day Weather Forecast

Advertisements
Track Severe Weather on mobile